createdAt,value
2022-11-19T00:01:26.844Z,132.47
2022-11-19T00:03:53.969Z,144.13
2022-11-19T00:06:26.705Z,98.83
2022-11-19T00:08:53.984Z,106.03
2022-11-19T00:11:42.521Z,78.37
2022-11-19T00:14:11.729Z,29.67
2022-11-19T00:16:42.980Z,72.07
2022-11-19T00:19:12.875Z,24.33
2022-11-19T00:21:39.524Z,66.40
2022-11-19T00:24:06.877Z,41.67
2022-11-19T00:26:33.524Z,45.97
2022-11-19T00:29:00.025Z,46.00
2022-11-19T00:31:26.573Z,59.03
2022-11-19T00:33:53.996Z,94.27
2022-11-19T00:36:21.762Z,54.70
2022-11-19T00:38:48.201Z,35.13
2022-11-19T00:41:14.751Z,81.87
2022-11-19T00:43:46.723Z,57.73
2022-11-19T00:46:28.930Z,55.27
2022-11-19T00:48:58.069Z,49.53
2022-11-19T00:51:28.357Z,26.97
2022-11-19T00:53:55.297Z,20.30
2022-11-19T00:56:24.518Z,28.10
2022-11-19T00:58:51.731Z,14.90
2022-11-19T01:01:21.903Z,17.87
2022-11-19T01:03:49.091Z,19.67
2022-11-19T01:06:19.799Z,30.47
2022-11-19T01:08:51.233Z,34.93
2022-11-19T01:11:26.220Z,35.90
2022-11-19T01:13:53.435Z,18.40
2022-11-19T01:16:30.353Z,15.60
2022-11-19T01:18:57.408Z,12.30
2022-11-19T01:21:28.966Z,12.33
2022-11-19T01:23:56.886Z,10.33
2022-11-19T01:26:24.048Z,9.70
2022-11-19T01:28:51.261Z,45.27
2022-11-19T01:31:21.517Z,8.87
2022-11-19T01:33:49.487Z,9.03
2022-11-19T01:36:33.878Z,23.73
2022-11-19T01:39:00.356Z,8.27
2022-11-19T01:41:30.945Z,14.33
2022-11-19T01:44:01.422Z,13.10
2022-11-19T01:46:31.768Z,10.27
2022-11-19T01:49:18.747Z,7.40
2022-11-19T01:51:59.922Z,8.50
2022-11-19T01:54:38.186Z,13.80
2022-11-19T01:57:10.782Z,9.87
2022-11-19T01:59:38.714Z,9.03
2022-11-19T02:02:05.618Z,30.70
2022-11-19T02:04:34.531Z,6.13
2022-11-19T02:07:01.942Z,14.10
2022-11-19T02:09:29.454Z,10.77
2022-11-19T02:14:26.207Z,9.30
2022-11-19T02:17:42.360Z,7.40
2022-11-19T02:21:28.349Z,8.30
2022-11-19T02:24:45.382Z,8.67
2022-11-19T02:27:55.372Z,6.20
2022-11-19T02:30:22.109Z,6.43
2022-11-19T02:33:29.113Z,6.07
2022-11-19T02:36:06.965Z,5.37
2022-11-19T02:40:12.132Z,10.03
2022-11-19T02:45:24.917Z,5.13
2022-11-19T02:47:59.231Z,4.23
2022-11-19T02:50:44.445Z,4.37
2022-11-19T02:53:10.920Z,4.07
2022-11-19T02:55:38.515Z,4.07
2022-11-19T02:58:37.816Z,4.13
2022-11-19T03:01:25.222Z,17.47
2022-11-19T03:04:12.212Z,6.40
2022-11-19T03:06:39.653Z,6.10
2022-11-19T03:09:06.120Z,5.93
2022-11-19T03:11:32.983Z,5.50
2022-11-19T03:14:43.766Z,5.47
2022-11-19T03:17:34.569Z,4.90
2022-11-19T03:20:30.927Z,3.80
2022-11-19T03:23:15.473Z,4.37
2022-11-19T03:25:50.409Z,4.40
2022-11-19T03:28:26.787Z,4.77
2022-11-19T03:30:56.161Z,4.17
2022-11-19T03:33:42.795Z,3.37
2022-11-19T03:36:16.319Z,4.23
2022-11-19T03:38:51.731Z,3.83
2022-11-19T03:41:22.062Z,3.80
2022-11-19T03:43:55.993Z,3.23
2022-11-19T03:46:25.753Z,5.70
2022-11-19T03:48:55.335Z,5.90
2022-11-19T03:51:47.944Z,5.27
2022-11-19T03:54:14.801Z,5.87
2022-11-19T03:56:43.651Z,20.97
2022-11-19T03:59:12.108Z,27.53
2022-11-19T04:01:39.329Z,4.47
2022-11-19T04:04:24.056Z,24.93
2022-11-19T04:06:50.670Z,12.40
2022-11-19T04:09:17.487Z,7.73
2022-11-19T04:14:10.780Z,25.80
2022-11-19T04:16:37.319Z,26.13
2022-11-19T04:19:03.785Z,18.43
2022-11-19T04:21:30.334Z,18.50
2022-11-19T04:23:56.779Z,29.13
2022-11-19T04:26:23.248Z,9.90
2022-11-19T04:28:49.695Z,5.50
2022-11-19T04:31:17.972Z,9.40
2022-11-19T04:33:44.765Z,7.63
2022-11-19T04:36:11.243Z,15.53
2022-11-19T04:38:37.717Z,4.20
2022-11-19T04:41:04.203Z,7.17
2022-11-19T04:43:30.675Z,9.77
2022-11-19T04:45:57.133Z,9.67
2022-11-19T04:48:23.623Z,13.63
2022-11-19T04:50:50.066Z,10.57
2022-11-19T04:53:16.579Z,7.67
2022-11-19T04:55:43.024Z,14.07
2022-11-19T04:58:09.749Z,5.93
2022-11-19T05:00:36.270Z,5.73
2022-11-19T05:03:02.981Z,12.33
2022-11-19T05:05:29.509Z,11.30
2022-11-19T05:07:55.958Z,12.13
2022-11-19T05:10:22.449Z,18.50
2022-11-19T05:12:48.998Z,11.77
2022-11-19T05:15:15.486Z,9.87
2022-11-19T05:17:41.940Z,37.70
2022-11-19T05:20:09.238Z,16.97
2022-11-19T05:22:35.705Z,20.13
2022-11-19T05:25:02.286Z,46.20
2022-11-19T05:27:28.750Z,31.93
2022-11-19T05:29:55.241Z,28.97
2022-11-19T05:32:21.698Z,27.03
2022-11-19T05:34:48.277Z,23.13
2022-11-19T05:37:14.737Z,17.43
2022-11-19T05:39:41.205Z,13.97
2022-11-19T05:42:07.650Z,15.77
2022-11-19T05:44:34.127Z,13.73
2022-11-19T05:47:00.579Z,18.20
2022-11-19T05:49:27.055Z,15.63
2022-11-19T05:51:53.529Z,14.17
2022-11-19T05:54:20.059Z,10.83
2022-11-19T05:56:46.589Z,8.77
2022-11-19T05:59:13.048Z,17.53
2022-11-19T06:01:39.497Z,14.07
2022-11-19T06:04:05.936Z,13.50
2022-11-19T06:06:32.406Z,16.03
2022-11-19T06:08:58.862Z,13.57
2022-11-19T06:11:43.480Z,13.60
2022-11-19T06:14:09.959Z,19.60
2022-11-19T06:16:36.432Z,8.23
2022-11-19T06:19:02.899Z,9.20
2022-11-19T06:21:29.353Z,12.00
2022-11-19T06:23:55.810Z,10.00
2022-11-19T06:26:24.865Z,10.57
2022-11-19T06:28:51.320Z,10.13
2022-11-19T06:31:18.553Z,11.77
2022-11-19T06:33:45.086Z,16.67
2022-11-19T06:36:11.897Z,10.73
2022-11-19T06:38:38.376Z,12.97
2022-11-19T06:41:05.051Z,11.13
2022-11-19T06:43:31.508Z,9.97
2022-11-19T06:45:58.052Z,9.57
2022-11-19T06:48:24.514Z,15.50
2022-11-19T06:50:50.971Z,10.17
2022-11-19T06:53:17.430Z,10.20
2022-11-19T06:55:43.908Z,10.73
2022-11-19T06:58:10.362Z,8.23
2022-11-19T07:00:36.893Z,10.17
2022-11-19T07:03:03.412Z,11.27
2022-11-19T07:05:29.856Z,17.80
2022-11-19T07:08:01.586Z,15.60
2022-11-19T07:10:29.652Z,9.47
2022-11-19T07:12:56.118Z,14.97
2022-11-19T07:15:22.593Z,9.17
2022-11-19T07:17:49.034Z,10.07
2022-11-19T07:20:16.181Z,9.43
2022-11-19T07:22:42.854Z,8.57
2022-11-19T07:25:13.267Z,9.50
2022-11-19T07:27:42.888Z,8.53
2022-11-19T07:30:10.159Z,14.27
2022-11-19T07:32:36.636Z,11.77
2022-11-19T07:35:03.430Z,11.33
2022-11-19T07:37:29.882Z,11.20
2022-11-19T07:39:56.357Z,11.00
2022-11-19T07:42:40.884Z,11.70
2022-11-19T07:45:08.948Z,8.77
2022-11-19T07:47:35.567Z,10.67
2022-11-19T07:50:02.245Z,11.17
2022-11-19T07:52:29.228Z,8.80
2022-11-19T07:54:55.696Z,8.53
2022-11-19T07:57:27.243Z,12.07
2022-11-19T07:59:56.467Z,9.63
2022-11-19T08:02:22.926Z,8.10
2022-11-19T08:04:49.391Z,9.07
2022-11-19T08:07:15.921Z,15.40
2022-11-19T08:09:42.384Z,10.47
2022-11-19T08:12:08.902Z,11.70
2022-11-19T08:14:35.398Z,12.53
2022-11-19T08:17:20.263Z,12.17
2022-11-19T08:19:46.732Z,10.10
2022-11-19T08:22:13.309Z,9.60
2022-11-19T08:24:39.757Z,12.87
2022-11-19T08:27:06.235Z,9.37
2022-11-19T08:29:32.688Z,10.40
2022-11-19T08:31:59.157Z,10.03
2022-11-19T08:34:25.700Z,13.70
2022-11-19T08:36:52.147Z,15.23
2022-11-19T08:39:18.641Z,11.70
2022-11-19T08:42:03.274Z,16.07
2022-11-19T08:44:29.726Z,10.13
2022-11-19T08:46:56.192Z,9.07
2022-11-19T08:49:22.668Z,11.17
2022-11-19T08:51:52.347Z,7.93
2022-11-19T08:54:19.233Z,10.37
2022-11-19T08:56:45.967Z,12.03
2022-11-19T08:59:12.450Z,12.40
2022-11-19T09:01:39.533Z,11.63
2022-11-19T09:04:05.988Z,11.40
2022-11-19T09:06:35.239Z,13.00
2022-11-19T09:09:03.680Z,12.90
2022-11-19T09:11:30.881Z,13.07
2022-11-19T09:13:57.616Z,11.17
2022-11-19T09:16:24.395Z,11.83
2022-11-19T09:18:50.888Z,12.07
2022-11-19T09:21:17.456Z,11.53
2022-11-19T09:23:43.905Z,13.63
2022-11-19T09:26:16.893Z,12.27
2022-11-19T09:28:44.380Z,12.67
2022-11-19T09:31:15.194Z,11.73
2022-11-19T09:33:46.329Z,14.93
2022-11-19T09:36:14.261Z,13.60
2022-11-19T09:38:41.520Z,12.93
2022-11-19T09:41:43.389Z,12.90
2022-11-19T09:44:41.079Z,14.37
2022-11-19T09:48:55.996Z,13.83
2022-11-19T09:51:30.271Z,11.37
2022-11-19T09:54:14.210Z,13.47
2022-11-19T09:56:45.345Z,15.90
2022-11-19T10:02:12.177Z,11.70
2022-11-19T10:04:38.650Z,14.13
2022-11-19T10:08:16.896Z,14.00
2022-11-19T10:12:26.685Z,15.40
2022-11-19T10:15:51.793Z,15.37
2022-11-19T10:18:47.528Z,21.67
2022-11-19T10:21:52.889Z,20.10
2022-11-19T10:24:37.318Z,23.10
2022-11-19T10:27:18.326Z,19.33
2022-11-19T10:29:50.030Z,19.20
2022-11-19T10:34:30.508Z,22.77
2022-11-19T10:37:13.425Z,21.93
2022-11-19T10:40:17.838Z,20.87
2022-11-19T10:42:53.661Z,25.33
2022-11-19T10:45:28.911Z,26.47
2022-11-19T10:48:22.522Z,31.83
2022-11-19T10:50:49.974Z,26.00
2022-11-19T10:53:41.779Z,26.47
2022-11-19T10:56:22.239Z,25.40
2022-11-19T10:59:10.584Z,25.00
2022-11-19T11:01:42.252Z,28.77
2022-11-19T11:04:28.970Z,31.90
2022-11-19T11:07:04.644Z,27.00
2022-11-19T11:09:42.768Z,24.93
2022-11-19T11:12:46.833Z,24.53
2022-11-19T11:15:26.139Z,24.30
2022-11-19T11:18:10.832Z,22.57
2022-11-19T11:20:44.626Z,22.97
2022-11-19T11:23:18.714Z,21.67
2022-11-19T11:26:25.487Z,25.40
2022-11-19T11:29:34.122Z,27.47
2022-11-19T11:32:46.653Z,20.73
2022-11-19T11:35:34.955Z,24.13
2022-11-19T11:38:04.445Z,21.30
2022-11-19T11:40:31.303Z,23.03
2022-11-19T11:42:58.299Z,23.67
2022-11-19T11:45:36.371Z,22.50
2022-11-19T11:48:20.215Z,21.50
2022-11-19T11:50:47.055Z,27.03
2022-11-19T11:53:26.884Z,23.37
2022-11-19T11:56:02.364Z,20.60
2022-11-19T11:58:32.786Z,26.33
2022-11-19T12:01:19.127Z,25.93
2022-11-19T12:03:58.329Z,21.73
2022-11-19T12:06:39.739Z,26.17
2022-11-19T12:09:34.525Z,24.57
2022-11-19T12:12:40.908Z,26.87
2022-11-19T12:15:42.142Z,24.67
2022-11-19T12:19:57.870Z,27.97
2022-11-19T12:22:58.162Z,26.03
2022-11-19T12:26:22.707Z,29.00
2022-11-19T12:29:36.176Z,29.77
2022-11-19T12:35:22.274Z,25.67
2022-11-19T12:42:23.013Z,31.63
2022-11-19T12:45:41.211Z,24.17
2022-11-19T12:48:42.966Z,32.90
2022-11-19T12:53:51.147Z,33.20
2022-11-19T13:01:13.178Z,26.00
2022-11-19T13:04:39.731Z,28.03
2022-11-19T13:07:28.382Z,29.83
2022-11-19T13:10:11.378Z,26.50
2022-11-19T13:12:46.821Z,27.40
2022-11-19T13:16:19.571Z,25.30
2022-11-19T13:18:53.817Z,26.80
2022-11-19T13:23:04.192Z,27.33
2022-11-19T13:25:47.003Z,27.47
2022-11-19T13:28:25.144Z,21.93
2022-11-19T13:30:58.034Z,25.70
2022-11-19T13:33:58.430Z,23.03
2022-11-19T13:36:54.738Z,26.20
2022-11-19T13:39:38.933Z,28.10
2022-11-19T13:42:27.667Z,27.90
2022-11-19T13:44:54.366Z,23.63
2022-11-19T13:47:31.582Z,27.63
2022-11-19T13:50:06.258Z,22.90
2022-11-19T13:52:49.580Z,20.60
2022-11-19T13:55:34.445Z,30.13
2022-11-19T13:58:46.757Z,31.07
2022-11-19T14:02:08.531Z,26.87
2022-11-19T14:09:59.831Z,29.03
2022-11-19T14:13:30.886Z,25.40
2022-11-19T14:17:09.387Z,27.17
2022-11-19T14:20:10.571Z,24.07
2022-11-19T14:23:13.279Z,22.70
2022-11-19T14:26:07.385Z,27.77
2022-11-19T14:28:51.836Z,28.67
2022-11-19T14:31:19.877Z,23.23
2022-11-19T14:34:04.721Z,29.97
2022-11-19T14:36:46.836Z,25.37
2022-11-19T14:39:28.031Z,29.53
2022-11-19T14:45:24.674Z,27.80
2022-11-19T14:48:03.354Z,27.07
2022-11-19T14:50:31.072Z,27.77
2022-11-19T14:53:00.826Z,29.73
2022-11-19T14:55:33.930Z,24.10
2022-11-19T14:58:19.315Z,26.80
2022-11-19T15:00:46.422Z,23.20
2022-11-19T15:03:27.093Z,23.53
2022-11-19T15:05:55.007Z,24.80
2022-11-19T15:09:01.898Z,24.37
2022-11-19T15:12:00.781Z,28.23
2022-11-19T15:15:03.471Z,26.80
2022-11-19T15:17:31.908Z,27.90
2022-11-19T15:22:25.358Z,26.80
2022-11-19T15:25:21.931Z,23.50
2022-11-19T15:31:07.857Z,22.40
2022-11-19T15:36:46.472Z,25.93
2022-11-19T15:40:06.426Z,21.07
2022-11-19T15:42:49.548Z,28.97
2022-11-19T15:45:21.646Z,26.10
2022-11-19T15:48:26.946Z,29.20
2022-11-19T15:50:53.995Z,30.33
2022-11-19T15:53:23.277Z,29.60
2022-11-19T15:56:07.933Z,30.90
2022-11-19T15:58:44.663Z,34.90
2022-11-19T16:01:17.354Z,26.43
2022-11-19T16:03:44.691Z,31.30
2022-11-19T16:06:26.249Z,25.80
2022-11-19T16:08:59.999Z,30.13
2022-11-19T16:11:54.088Z,28.53
2022-11-19T16:14:47.490Z,25.73
2022-11-19T16:17:38.243Z,33.43
2022-11-19T16:20:26.534Z,26.83
2022-11-19T16:23:07.865Z,30.07
2022-11-19T16:25:40.820Z,29.67
2022-11-19T16:28:29.691Z,28.13
2022-11-19T16:31:06.479Z,30.10
2022-11-19T16:33:34.047Z,26.67
2022-11-19T16:36:19.970Z,21.90
2022-11-19T16:38:50.348Z,21.43
2022-11-19T16:41:40.108Z,21.17
2022-11-19T16:44:15.147Z,22.47
2022-11-19T16:46:42.219Z,31.10
2022-11-19T16:49:52.178Z,25.20
2022-11-19T16:52:39.269Z,25.70
2022-11-19T16:55:42.015Z,24.50
2022-11-19T16:58:21.669Z,28.27
2022-11-19T17:00:54.530Z,25.53
2022-11-19T17:03:34.975Z,31.47
2022-11-19T17:06:03.394Z,30.50
2022-11-19T17:08:37.718Z,26.63
2022-11-19T17:11:41.954Z,32.43
2022-11-19T17:16:16.189Z,28.33
2022-11-19T17:18:43.755Z,25.43
2022-11-19T17:21:31.448Z,32.87
2022-11-19T17:23:58.243Z,29.43
2022-11-19T17:26:26.698Z,38.10
2022-11-19T17:29:10.799Z,45.97
2022-11-19T17:31:37.425Z,40.70
2022-11-19T17:35:06.363Z,35.70
2022-11-19T17:37:32.820Z,32.23
2022-11-19T17:39:59.314Z,32.50
2022-11-19T17:43:56.574Z,35.83
2022-11-19T17:46:26.239Z,31.07
2022-11-19T17:48:54.163Z,35.60
2022-11-19T17:51:24.006Z,38.30
2022-11-19T17:53:51.927Z,26.00
2022-11-19T17:56:27.869Z,28.80
2022-11-19T17:58:54.862Z,28.20
2022-11-19T18:01:22.217Z,23.70
2022-11-19T18:03:48.835Z,26.60
2022-11-19T18:06:17.256Z,25.87
2022-11-19T18:08:44.474Z,28.43
2022-11-19T18:11:20.512Z,22.13
2022-11-19T18:13:51.054Z,21.27
2022-11-19T18:16:21.139Z,20.40
2022-11-19T18:18:48.368Z,21.00
2022-11-19T18:21:19.811Z,19.40
2022-11-19T18:23:49.213Z,16.97
2022-11-19T18:26:24.196Z,15.63
2022-11-19T18:28:50.902Z,15.03
2022-11-19T18:31:27.382Z,13.53
2022-11-19T18:33:55.676Z,16.10
2022-11-19T18:36:24.076Z,11.87
2022-11-19T18:38:52.074Z,11.43
2022-11-19T18:41:18.553Z,10.43
2022-11-19T18:44:03.808Z,13.60
2022-11-19T18:46:30.265Z,12.57
2022-11-19T18:48:56.727Z,11.67
2022-11-19T18:51:29.820Z,8.90
2022-11-19T18:53:56.316Z,11.07
2022-11-19T18:56:22.761Z,9.37
2022-11-19T18:58:49.333Z,9.40
2022-11-19T19:01:16.516Z,11.27
2022-11-19T19:03:43.548Z,8.80
2022-11-19T19:06:10.672Z,14.63
2022-11-19T19:08:37.184Z,9.80
2022-11-19T19:11:25.813Z,9.87
2022-11-19T19:13:52.982Z,11.53
2022-11-19T19:16:19.502Z,10.97
2022-11-19T19:18:46.373Z,10.13
2022-11-19T19:21:15.802Z,13.53
2022-11-19T19:23:42.402Z,14.77
2022-11-19T19:26:11.714Z,11.73
2022-11-19T19:28:38.196Z,11.37
2022-11-19T19:31:05.523Z,10.97
2022-11-19T19:33:32.105Z,16.50
2022-11-19T19:35:58.634Z,18.57
2022-11-19T19:38:25.123Z,17.57
2022-11-19T19:40:51.852Z,16.20
2022-11-19T19:43:18.305Z,21.53
2022-11-19T19:45:44.776Z,20.03
2022-11-19T19:48:11.239Z,21.97
2022-11-19T19:50:37.707Z,20.87
2022-11-19T19:53:04.530Z,18.07
2022-11-19T19:55:31.000Z,20.70
2022-11-19T19:57:57.485Z,19.27
2022-11-19T20:00:23.941Z,18.77
2022-11-19T20:02:50.422Z,15.73
2022-11-19T20:05:16.910Z,19.27
2022-11-19T20:07:43.448Z,19.73
2022-11-19T20:10:10.036Z,16.50
2022-11-19T20:12:54.865Z,24.83
2022-11-19T20:15:21.326Z,21.90
2022-11-19T20:17:47.803Z,18.97
2022-11-19T20:20:14.412Z,21.93
2022-11-19T20:22:40.857Z,21.00
2022-11-19T20:25:07.689Z,22.10
2022-11-19T20:27:34.142Z,18.13
2022-11-19T20:30:00.612Z,21.93
2022-11-19T20:32:27.079Z,20.63
2022-11-19T20:34:53.723Z,22.30
2022-11-19T20:37:20.173Z,21.40
2022-11-19T20:39:46.893Z,18.80
2022-11-19T20:42:31.546Z,18.47
2022-11-19T20:44:58.182Z,16.83
2022-11-19T20:47:24.665Z,18.47
2022-11-19T20:49:51.156Z,16.73
2022-11-19T20:52:20.625Z,15.07
2022-11-19T20:54:48.831Z,13.47
2022-11-19T20:57:17.341Z,18.50
2022-11-19T20:59:44.023Z,17.83
2022-11-19T21:02:10.640Z,12.67
2022-11-19T21:04:37.341Z,14.70
2022-11-19T21:07:05.207Z,11.97
2022-11-19T21:09:31.706Z,13.40
2022-11-19T21:11:58.171Z,9.87
2022-11-19T21:14:24.614Z,10.93
2022-11-19T21:16:51.148Z,13.73
2022-11-19T21:19:17.676Z,11.33
2022-11-19T21:21:44.704Z,12.40
2022-11-19T21:24:11.197Z,9.87
2022-11-19T21:26:37.635Z,10.80
2022-11-19T21:29:04.345Z,14.47
2022-11-19T21:31:47.898Z,16.27
2022-11-19T21:34:19.580Z,14.33
2022-11-19T21:36:47.341Z,13.43
2022-11-19T21:39:16.581Z,15.50
2022-11-19T21:41:44.047Z,14.50
2022-11-19T21:44:10.510Z,14.00
2022-11-19T21:46:37.224Z,14.43
2022-11-19T21:49:04.273Z,12.93
2022-11-19T21:51:30.811Z,12.53
2022-11-19T21:53:58.405Z,12.97
2022-11-19T21:56:26.937Z,13.37
2022-11-19T21:58:53.412Z,15.10
2022-11-19T22:01:20.208Z,12.57
2022-11-19T22:03:47.110Z,15.40
2022-11-19T22:06:13.570Z,12.83
2022-11-19T22:08:41.738Z,11.67
2022-11-19T22:11:28.835Z,10.87
2022-11-19T22:14:02.399Z,14.57
2022-11-19T22:16:30.855Z,12.43
2022-11-19T22:18:57.463Z,12.57
2022-11-19T22:21:25.458Z,12.60
2022-11-19T22:23:52.056Z,10.10
2022-11-19T22:26:18.648Z,11.03
2022-11-19T22:28:45.091Z,12.07
2022-11-19T22:31:11.756Z,13.43
2022-11-19T22:33:40.210Z,11.00
2022-11-19T22:36:10.630Z,11.67
2022-11-19T22:38:38.497Z,12.13
2022-11-19T22:41:11.694Z,10.10
2022-11-19T22:43:39.767Z,11.17
2022-11-19T22:46:08.803Z,11.40
2022-11-19T22:48:35.992Z,10.57
2022-11-19T22:51:14.835Z,10.73
2022-11-19T22:53:42.169Z,13.73
2022-11-19T22:56:11.703Z,12.33
2022-11-19T22:58:38.782Z,15.27
2022-11-19T23:01:12.086Z,14.00
2022-11-19T23:03:38.565Z,12.63
2022-11-19T23:06:05.175Z,14.73
2022-11-19T23:08:31.646Z,16.77
2022-11-19T23:11:01.386Z,14.33
2022-11-19T23:13:33.689Z,14.43
2022-11-19T23:16:26.763Z,14.03
2022-11-19T23:18:53.412Z,15.70
2022-11-19T23:21:27.215Z,14.67
2022-11-19T23:23:54.793Z,15.23
2022-11-19T23:26:24.365Z,16.80
2022-11-19T23:28:52.820Z,13.97
2022-11-19T23:31:32.038Z,15.90
2022-11-19T23:33:59.663Z,16.40
2022-11-19T23:36:33.017Z,16.70
2022-11-19T23:39:00.436Z,14.13
2022-11-19T23:41:27.508Z,20.53
2022-11-19T23:43:55.473Z,14.83
2022-11-19T23:46:25.276Z,14.20
2022-11-19T23:48:55.321Z,15.23
2022-11-19T23:51:25.423Z,14.17
2022-11-19T23:53:52.585Z,15.37
2022-11-19T23:56:21.240Z,16.70
2022-11-19T23:58:48.542Z,17.40
